createdAt,value
2023-05-16T00:01:09.434Z,68.99
2023-05-16T00:03:38.262Z,68.68
2023-05-16T00:06:06.025Z,68.42
2023-05-16T00:08:32.986Z,68.13
2023-05-16T00:10:59.824Z,68.17
2023-05-16T00:13:26.782Z,68.11
2023-05-16T00:15:55.458Z,68.41
2023-05-16T00:18:23.218Z,68.91
2023-05-16T00:20:50.872Z,68.62
2023-05-16T00:23:17.802Z,68.53
2023-05-16T00:25:45.142Z,68.43
2023-05-16T00:28:11.977Z,68.27
2023-05-16T00:30:38.892Z,67.93
2023-05-16T00:33:05.915Z,67.70
2023-05-16T00:35:32.955Z,67.19
2023-05-16T00:37:59.831Z,67.06
2023-05-16T00:40:26.956Z,66.89
2023-05-16T00:42:53.974Z,66.75
2023-05-16T00:45:20.842Z,66.66
2023-05-16T00:47:48.110Z,66.55
2023-05-16T00:50:37.408Z,66.74
2023-05-16T00:53:04.483Z,66.64
2023-05-16T00:55:32.538Z,66.36
2023-05-16T00:58:01.271Z,65.78
2023-05-16T01:00:28.516Z,66.00
2023-05-16T01:02:56.396Z,65.98
2023-05-16T01:05:30.550Z,65.88
2023-05-16T01:07:57.436Z,65.75
2023-05-16T01:10:25.076Z,66.30
2023-05-16T01:13:18.490Z,66.14
2023-05-16T01:15:59.963Z,66.13
2023-05-16T01:18:40.881Z,66.31
2023-05-16T01:21:17.136Z,66.62
2023-05-16T01:24:13.732Z,67.15
2023-05-16T01:26:41.962Z,67.28
2023-05-16T01:29:09.013Z,67.58
2023-05-16T01:31:36.069Z,67.43
2023-05-16T01:34:03.147Z,67.31
2023-05-16T01:36:40.439Z,67.34
2023-05-16T01:39:19.955Z,67.91
2023-05-16T01:42:04.688Z,67.97
2023-05-16T01:45:00.005Z,67.66
2023-05-16T01:47:28.928Z,68.09
2023-05-16T01:50:15.692Z,67.92
2023-05-16T01:53:03.301Z,67.86
2023-05-16T01:55:51.162Z,67.94
2023-05-16T01:58:21.610Z,67.99
2023-05-16T02:00:48.524Z,67.99
2023-05-16T02:03:15.435Z,68.51
2023-05-16T02:05:42.355Z,68.34
2023-05-16T02:08:13.695Z,68.48
2023-05-16T02:10:41.431Z,68.65
2023-05-16T02:13:08.168Z,68.77
2023-05-16T02:15:35.076Z,68.77
2023-05-16T02:18:01.872Z,68.87
2023-05-16T02:20:28.624Z,68.34
2023-05-16T02:22:55.955Z,67.97
2023-05-16T02:25:22.736Z,67.80
2023-05-16T02:27:49.463Z,67.00
2023-05-16T02:30:16.326Z,66.67
2023-05-16T02:32:45.311Z,66.53
2023-05-16T02:35:12.508Z,66.17
2023-05-16T02:37:40.105Z,66.11
2023-05-16T02:40:08.085Z,65.19
2023-05-16T02:42:37.962Z,65.24
2023-05-16T02:45:05.130Z,65.27
2023-05-16T02:47:32.146Z,64.68
2023-05-16T02:49:59.906Z,64.59
2023-05-16T02:52:26.633Z,64.10
2023-05-16T02:57:23.261Z,63.50
2023-05-16T02:59:50.030Z,63.16
2023-05-16T03:02:16.807Z,62.92
2023-05-16T03:04:43.562Z,62.84
2023-05-16T03:07:10.834Z,62.64
2023-05-16T03:09:37.639Z,61.44
2023-05-16T03:12:06.601Z,60.96
2023-05-16T03:14:34.853Z,60.20
2023-05-16T03:17:03.658Z,60.08
2023-05-16T03:19:30.490Z,59.77
2023-05-16T03:21:57.701Z,59.83
2023-05-16T03:24:25.317Z,59.16
2023-05-16T03:26:52.225Z,59.23
2023-05-16T03:29:21.341Z,60.78
2023-05-16T03:31:48.126Z,58.67
2023-05-16T03:34:14.980Z,57.80
2023-05-16T03:36:41.866Z,57.68
2023-05-16T03:39:08.719Z,57.86
2023-05-16T03:41:35.714Z,57.67
2023-05-16T03:44:02.482Z,57.21
2023-05-16T03:46:29.404Z,56.88
2023-05-16T03:48:56.290Z,56.86
2023-05-16T03:51:23.364Z,56.81
2023-05-16T03:53:50.116Z,56.82
2023-05-16T03:56:17.034Z,55.91
2023-05-16T03:58:43.837Z,55.70
2023-05-16T04:01:10.528Z,55.25
2023-05-16T04:03:38.475Z,54.96
2023-05-16T04:06:07.696Z,55.55
2023-05-16T04:08:34.626Z,54.68
2023-05-16T04:11:01.398Z,54.32
2023-05-16T04:13:28.166Z,54.06
2023-05-16T04:15:54.984Z,54.18
2023-05-16T04:18:21.735Z,54.08
2023-05-16T04:20:48.464Z,54.16
2023-05-16T04:23:15.227Z,54.22
2023-05-16T04:25:42.996Z,54.16
2023-05-16T04:28:09.796Z,54.05
2023-05-16T04:30:37.520Z,54.31
2023-05-16T04:33:04.380Z,53.78
2023-05-16T04:35:31.222Z,54.08
2023-05-16T04:37:58.010Z,53.70
2023-05-16T04:40:25.547Z,53.57
2023-05-16T04:42:53.454Z,53.26
2023-05-16T04:45:21.132Z,53.23
2023-05-16T04:47:47.897Z,53.53
2023-05-16T04:50:16.211Z,53.16
2023-05-16T04:52:42.951Z,53.32
2023-05-16T04:55:11.572Z,53.61
2023-05-16T04:57:38.320Z,53.58
2023-05-16T05:00:08.996Z,53.71
2023-05-16T05:02:36.104Z,53.86
2023-05-16T05:05:03.427Z,53.60
2023-05-16T05:07:30.656Z,53.77
2023-05-16T05:09:57.366Z,53.91
2023-05-16T05:12:24.169Z,53.64
2023-05-16T05:14:51.233Z,53.49
2023-05-16T05:17:20.191Z,53.31
2023-05-16T05:19:48.133Z,53.22
2023-05-16T05:22:15.471Z,53.35
2023-05-16T05:24:42.441Z,53.06
2023-05-16T05:27:09.206Z,53.08
2023-05-16T05:29:36.020Z,53.35
2023-05-16T05:32:02.915Z,53.00
2023-05-16T05:34:29.863Z,53.02
2023-05-16T05:36:56.865Z,52.88
2023-05-16T05:39:24.772Z,53.21
2023-05-16T05:41:51.489Z,52.36
2023-05-16T05:44:18.250Z,52.54
2023-05-16T05:46:45.531Z,52.29
2023-05-16T05:49:12.545Z,52.49
2023-05-16T05:51:39.369Z,52.61
2023-05-16T05:54:06.422Z,52.34
2023-05-16T05:56:33.538Z,52.51
2023-05-16T05:59:00.323Z,52.48
2023-05-16T06:01:27.309Z,52.36
2023-05-16T06:03:54.163Z,51.93
2023-05-16T06:06:21.086Z,51.60
2023-05-16T06:08:47.865Z,51.55
2023-05-16T06:11:14.681Z,51.25
2023-05-16T06:13:41.501Z,51.13
2023-05-16T06:16:09.542Z,50.94
2023-05-16T06:18:37.986Z,50.98
2023-05-16T06:21:05.815Z,50.57
2023-05-16T06:23:33.249Z,50.58
2023-05-16T06:26:00.325Z,49.78
2023-05-16T06:28:27.118Z,49.54
2023-05-16T06:30:53.979Z,49.24
2023-05-16T06:33:21.072Z,48.60
2023-05-16T06:35:48.760Z,48.29
2023-05-16T06:38:16.048Z,48.33
2023-05-16T06:40:42.878Z,48.34
2023-05-16T06:43:09.725Z,48.13
2023-05-16T06:45:36.608Z,48.00
2023-05-16T06:48:05.108Z,48.03
2023-05-16T06:50:31.979Z,47.55
2023-05-16T06:52:58.818Z,47.68
2023-05-16T06:55:25.965Z,47.66
2023-05-16T06:57:52.984Z,48.72
2023-05-16T07:00:20.388Z,48.04
2023-05-16T07:02:47.278Z,54.20
2023-05-16T07:05:14.085Z,49.41
2023-05-16T07:07:40.971Z,48.10
2023-05-16T07:10:08.174Z,48.80
2023-05-16T07:12:38.407Z,47.93
2023-05-16T07:15:06.057Z,47.98
2023-05-16T07:17:33.194Z,48.16
2023-05-16T07:20:00.784Z,49.75
2023-05-16T07:22:28.578Z,48.89
2023-05-16T07:24:57.262Z,48.04
2023-05-16T07:27:24.032Z,48.84
2023-05-16T07:29:50.849Z,48.70
2023-05-16T07:32:18.255Z,48.32
2023-05-16T07:34:45.073Z,48.48
2023-05-16T07:37:13.112Z,47.94
2023-05-16T07:39:40.549Z,48.32
2023-05-16T07:42:08.483Z,49.32
2023-05-16T07:44:36.154Z,47.32
2023-05-16T07:47:03.435Z,48.77
2023-05-16T07:49:30.249Z,47.57
2023-05-16T07:51:57.088Z,47.92
2023-05-16T07:54:23.871Z,48.39
2023-05-16T07:56:50.668Z,47.36
2023-05-16T07:59:17.545Z,47.49
2023-05-16T08:01:44.468Z,46.34
2023-05-16T08:04:11.380Z,47.58
2023-05-16T08:06:38.175Z,46.25
2023-05-16T08:09:04.991Z,46.80
2023-05-16T08:11:31.845Z,45.27
2023-05-16T08:13:58.643Z,44.97
2023-05-16T08:16:25.784Z,45.14
2023-05-16T08:18:52.755Z,44.49
2023-05-16T08:21:19.640Z,44.61
2023-05-16T08:23:46.372Z,43.84
2023-05-16T08:26:13.159Z,42.66
2023-05-16T08:28:40.009Z,42.81
2023-05-16T08:31:06.901Z,42.73
2023-05-16T08:33:36.460Z,43.14
2023-05-16T08:36:03.441Z,42.63
2023-05-16T08:38:30.279Z,42.80
2023-05-16T08:40:57.240Z,42.58
2023-05-16T08:43:24.195Z,42.42
2023-05-16T08:45:51.032Z,41.66
2023-05-16T08:48:23.039Z,41.21
2023-05-16T08:50:50.055Z,41.61
2023-05-16T08:53:27.850Z,41.08
2023-05-16T08:55:57.117Z,41.54
2023-05-16T08:58:24.735Z,41.48
2023-05-16T09:00:51.991Z,41.30
2023-05-16T09:03:21.075Z,40.62
2023-05-16T09:05:48.178Z,39.81
2023-05-16T09:08:14.969Z,39.56
2023-05-16T09:10:41.920Z,39.60
2023-05-16T09:13:08.721Z,39.72
2023-05-16T09:15:35.672Z,39.30
2023-05-16T09:18:03.227Z,38.86
2023-05-16T09:20:33.016Z,37.86
2023-05-16T09:23:00.169Z,37.03
2023-05-16T09:25:31.296Z,36.46
2023-05-16T09:28:01.534Z,35.92
2023-05-16T09:30:31.738Z,35.86
2023-05-16T09:32:59.417Z,34.78
2023-05-16T09:35:43.246Z,35.20
2023-05-16T09:38:18.002Z,35.62
2023-05-16T09:40:45.700Z,40.39
2023-05-16T09:43:16.507Z,39.89
2023-05-16T09:45:48.934Z,39.80
2023-05-16T09:48:17.128Z,40.47
2023-05-16T09:50:54.600Z,41.63
2023-05-16T09:53:28.595Z,43.23
2023-05-16T09:56:02.452Z,42.47
2023-05-16T09:58:33.264Z,41.99
2023-05-16T10:01:00.650Z,41.50
2023-05-16T10:03:28.221Z,41.40
2023-05-16T10:05:55.994Z,42.35
2023-05-16T10:08:28.086Z,41.89
2023-05-16T10:10:56.898Z,41.19
2023-05-16T10:13:28.985Z,41.71
2023-05-16T10:15:57.461Z,42.41
2023-05-16T10:18:32.047Z,43.57
2023-05-16T10:21:15.154Z,44.20
2023-05-16T10:23:43.243Z,44.20
2023-05-16T10:26:14.309Z,44.36
2023-05-16T10:28:41.768Z,44.79
2023-05-16T10:31:11.125Z,44.55
2023-05-16T10:33:39.174Z,44.38
2023-05-16T10:36:08.050Z,45.32
2023-05-16T10:38:35.642Z,44.63
2023-05-16T10:41:02.930Z,45.41
2023-05-16T10:43:31.178Z,46.89
2023-05-16T10:46:03.260Z,46.12
2023-05-16T10:48:34.954Z,46.07
2023-05-16T10:51:03.713Z,45.07
2023-05-16T10:53:34.846Z,45.27
2023-05-16T10:56:01.656Z,45.38
2023-05-16T10:58:31.463Z,45.04
2023-05-16T11:01:21.084Z,42.09
2023-05-16T11:03:57.192Z,42.19
2023-05-16T11:06:26.213Z,45.35
2023-05-16T11:09:06.160Z,43.32
2023-05-16T11:11:53.962Z,42.96
2023-05-16T11:14:33.025Z,41.10
2023-05-16T11:17:09.454Z,41.91
2023-05-16T11:19:47.431Z,42.06
2023-05-16T11:22:17.131Z,44.62
2023-05-16T11:25:02.814Z,45.79
2023-05-16T11:27:32.230Z,45.83
2023-05-16T11:30:11.104Z,46.79
2023-05-16T11:32:39.689Z,47.01
2023-05-16T11:35:09.029Z,45.91
2023-05-16T11:37:39.780Z,47.81
2023-05-16T11:40:09.576Z,49.42
2023-05-16T11:42:39.374Z,49.34
2023-05-16T11:45:12.403Z,47.91
2023-05-16T11:47:41.024Z,48.23
2023-05-16T11:50:12.745Z,47.70
2023-05-16T11:52:40.302Z,48.01
2023-05-16T11:55:11.032Z,45.82
2023-05-16T11:57:44.499Z,45.82
2023-05-16T12:00:19.658Z,45.61
2023-05-16T12:02:48.003Z,45.57
2023-05-16T12:05:16.951Z,45.71
2023-05-16T12:07:44.914Z,46.20
2023-05-16T12:10:13.502Z,44.57
2023-05-16T12:12:45.296Z,44.43
2023-05-16T12:15:12.086Z,44.53
2023-05-16T12:17:40.939Z,45.58
2023-05-16T12:20:14.749Z,45.32
2023-05-16T12:22:44.299Z,45.79
2023-05-16T12:25:29.827Z,45.17
2023-05-16T12:28:01.982Z,44.78
2023-05-16T12:30:29.770Z,43.27
2023-05-16T12:33:05.106Z,43.90
2023-05-16T12:35:35.702Z,44.88
2023-05-16T12:38:06.662Z,45.43
2023-05-16T12:40:33.560Z,45.84
2023-05-16T12:43:01.114Z,45.59
2023-05-16T12:45:28.120Z,45.54
2023-05-16T12:47:54.966Z,46.28
2023-05-16T12:50:23.081Z,46.45
2023-05-16T12:52:51.474Z,45.79
2023-05-16T12:55:19.704Z,44.98
2023-05-16T12:57:48.264Z,44.58
2023-05-16T13:00:18.894Z,42.71
2023-05-16T13:02:47.586Z,44.17
2023-05-16T13:05:15.051Z,43.36
2023-05-16T13:07:42.119Z,44.95
2023-05-16T13:10:10.863Z,44.65
2023-05-16T13:12:39.194Z,45.10
2023-05-16T13:15:07.634Z,45.12
2023-05-16T13:17:44.278Z,44.76
2023-05-16T13:20:15.176Z,45.39
2023-05-16T13:22:43.594Z,47.32
2023-05-16T13:25:11.374Z,46.09
2023-05-16T13:27:38.301Z,46.86
2023-05-16T13:30:05.899Z,46.86
2023-05-16T13:32:32.966Z,47.72
2023-05-16T13:34:59.815Z,48.09
2023-05-16T13:37:26.701Z,48.84
2023-05-16T13:39:56.316Z,49.17
2023-05-16T13:42:23.198Z,49.28
2023-05-16T13:44:51.471Z,49.50
2023-05-16T13:47:18.251Z,50.02
2023-05-16T13:49:47.966Z,49.61
2023-05-16T13:52:15.019Z,49.55
2023-05-16T13:54:41.857Z,48.38
2023-05-16T13:57:08.749Z,48.97
2023-05-16T13:59:59.253Z,49.10
2023-05-16T14:02:22.936Z,47.52
2023-05-16T14:04:50.179Z,48.55
2023-05-16T14:07:17.181Z,49.35
2023-05-16T14:09:44.674Z,48.47
2023-05-16T14:12:11.613Z,48.56
2023-05-16T14:14:38.652Z,44.39
2023-05-16T14:17:05.435Z,46.83
2023-05-16T14:19:32.350Z,46.03
2023-05-16T14:21:59.209Z,45.53
2023-05-16T14:24:26.605Z,44.44
2023-05-16T14:26:58.381Z,44.60
2023-05-16T14:29:25.745Z,45.38
2023-05-16T14:31:53.167Z,44.44
2023-05-16T14:34:22.366Z,44.70
2023-05-16T14:36:49.666Z,45.75
2023-05-16T14:39:16.612Z,45.84
2023-05-16T14:41:43.697Z,43.55
2023-05-16T14:44:10.509Z,44.59
2023-05-16T14:46:37.534Z,44.05
2023-05-16T14:49:04.926Z,43.11
2023-05-16T14:51:32.407Z,47.10
2023-05-16T14:53:59.261Z,47.96
2023-05-16T14:56:27.004Z,45.90
2023-05-16T14:58:54.259Z,42.54
2023-05-16T15:01:21.561Z,45.51
2023-05-16T15:03:55.502Z,47.38
2023-05-16T15:06:24.851Z,47.11
2023-05-16T15:08:51.922Z,45.92
2023-05-16T15:11:18.742Z,45.32
2023-05-16T15:13:45.535Z,45.25
2023-05-16T15:16:12.504Z,44.99
2023-05-16T15:18:40.518Z,46.11
2023-05-16T15:21:07.588Z,45.74
2023-05-16T15:23:34.576Z,45.17
2023-05-16T15:26:01.361Z,45.32
2023-05-16T15:28:28.099Z,45.46
2023-05-16T15:30:54.964Z,44.47
2023-05-16T15:33:21.750Z,41.70
2023-05-16T15:35:48.601Z,43.80
2023-05-16T15:38:15.689Z,41.85
2023-05-16T15:40:42.666Z,44.66
2023-05-16T15:43:09.493Z,44.60
2023-05-16T15:45:39.866Z,46.45
2023-05-16T15:48:07.459Z,46.96
2023-05-16T15:50:34.344Z,47.73
2023-05-16T15:53:01.211Z,46.92
2023-05-16T15:55:28.294Z,46.71
2023-05-16T15:57:57.438Z,46.60
2023-05-16T16:00:25.026Z,47.09
2023-05-16T16:02:52.315Z,47.49
2023-05-16T16:05:19.183Z,47.89
2023-05-16T16:07:46.095Z,48.47
2023-05-16T16:10:12.972Z,48.25
2023-05-16T16:12:39.914Z,48.10
2023-05-16T16:15:07.536Z,47.97
2023-05-16T16:17:34.467Z,45.90
2023-05-16T16:20:01.412Z,47.65
2023-05-16T16:22:28.313Z,46.77
2023-05-16T16:24:56.149Z,47.29
2023-05-16T16:27:23.557Z,47.13
2023-05-16T16:29:50.403Z,47.78
2023-05-16T16:32:17.249Z,48.33
2023-05-16T16:34:44.003Z,50.17
2023-05-16T16:37:11.625Z,50.15
2023-05-16T16:39:38.740Z,50.38
2023-05-16T16:42:06.225Z,51.01
2023-05-16T16:44:33.141Z,51.50
2023-05-16T16:46:59.957Z,50.88
2023-05-16T16:49:26.866Z,52.65
2023-05-16T16:51:53.738Z,52.23
2023-05-16T16:54:22.387Z,52.98
2023-05-16T16:56:49.834Z,53.33
2023-05-16T16:59:16.852Z,53.43
2023-05-16T17:01:44.006Z,53.29
2023-05-16T17:04:11.958Z,53.47
2023-05-16T17:06:38.737Z,54.02
2023-05-16T17:09:07.008Z,53.95
2023-05-16T17:11:36.390Z,53.84
2023-05-16T17:14:05.863Z,54.55
2023-05-16T17:16:33.499Z,54.64
2023-05-16T17:19:00.447Z,54.66
2023-05-16T17:21:28.141Z,54.80
2023-05-16T17:23:55.385Z,54.71
2023-05-16T17:26:22.232Z,54.71
2023-05-16T17:28:49.310Z,55.19
2023-05-16T17:31:16.295Z,54.88
2023-05-16T17:33:43.080Z,55.34
2023-05-16T17:36:10.755Z,55.41
2023-05-16T17:38:37.803Z,55.06
2023-05-16T17:41:04.818Z,55.13
2023-05-16T17:43:31.678Z,55.87
2023-05-16T17:45:58.556Z,56.19
2023-05-16T17:48:25.436Z,56.68
2023-05-16T17:50:55.079Z,57.63
2023-05-16T17:53:21.955Z,58.32
2023-05-16T17:55:49.718Z,59.59
2023-05-16T17:58:17.970Z,59.73
2023-05-16T18:00:46.640Z,60.85
2023-05-16T18:03:13.582Z,61.12
2023-05-16T18:05:40.588Z,61.34
2023-05-16T18:08:08.650Z,62.03
2023-05-16T18:10:50.370Z,62.46
2023-05-16T18:13:17.632Z,62.57
2023-05-16T18:15:44.460Z,62.97
2023-05-16T18:18:11.785Z,62.93
2023-05-16T18:20:38.910Z,63.51
2023-05-16T18:23:05.690Z,63.64
2023-05-16T18:25:32.476Z,63.89
2023-05-16T18:27:59.301Z,64.23
2023-05-16T18:30:26.432Z,64.67
2023-05-16T18:32:53.377Z,65.57
2023-05-16T18:35:20.346Z,65.38
2023-05-16T18:37:47.328Z,65.80
2023-05-16T18:40:14.227Z,65.73
2023-05-16T18:42:41.095Z,65.64
2023-05-16T18:45:08.480Z,65.17
2023-05-16T18:47:35.264Z,65.07
2023-05-16T18:50:02.764Z,65.53
2023-05-16T18:52:29.586Z,64.88
2023-05-16T18:54:56.652Z,64.63
2023-05-16T18:57:23.427Z,64.67
2023-05-16T18:59:53.569Z,64.09
2023-05-16T19:02:27.222Z,64.27
2023-05-16T19:05:01.702Z,64.41
2023-05-16T19:07:28.691Z,64.24
2023-05-16T19:09:55.505Z,64.43
2023-05-16T19:12:24.144Z,64.47
2023-05-16T19:14:51.518Z,64.55
2023-05-16T19:17:18.421Z,64.13
2023-05-16T19:19:45.389Z,63.72
2023-05-16T19:22:12.293Z,64.27
2023-05-16T19:24:39.018Z,64.46
2023-05-16T19:27:06.058Z,64.02
2023-05-16T19:29:32.806Z,64.02
2023-05-16T19:31:59.706Z,63.77
2023-05-16T19:34:26.793Z,63.51
2023-05-16T19:36:53.882Z,62.65
2023-05-16T19:39:20.648Z,62.11
2023-05-16T19:41:51.633Z,61.94
2023-05-16T19:44:22.703Z,61.79
2023-05-16T19:46:49.546Z,61.76
2023-05-16T19:49:19.509Z,61.49
2023-05-16T19:51:53.386Z,61.69
2023-05-16T19:54:20.147Z,61.43
2023-05-16T19:56:47.093Z,61.37
2023-05-16T19:59:14.056Z,61.64
2023-05-16T20:04:12.934Z,62.04
2023-05-16T20:06:40.002Z,62.02
2023-05-16T20:09:07.381Z,61.91
2023-05-16T20:11:34.382Z,61.99
2023-05-16T20:14:01.182Z,62.20
2023-05-16T20:16:28.031Z,62.13
2023-05-16T20:18:54.861Z,62.10
2023-05-16T20:21:21.743Z,62.10
2023-05-16T20:23:48.571Z,61.90
2023-05-16T20:26:15.569Z,62.02
2023-05-16T20:28:42.465Z,62.15
2023-05-16T20:31:09.252Z,62.09
2023-05-16T20:33:36.298Z,62.15
2023-05-16T20:36:03.471Z,62.05
2023-05-16T20:38:30.315Z,62.29
2023-05-16T20:40:57.194Z,62.33
2023-05-16T20:43:26.506Z,62.35
2023-05-16T20:45:55.286Z,62.41
2023-05-16T20:48:22.125Z,62.26
2023-05-16T20:50:48.982Z,62.21
2023-05-16T20:53:15.832Z,62.36
2023-05-16T20:55:42.644Z,62.46
2023-05-16T20:58:09.449Z,62.53
2023-05-16T21:00:36.299Z,62.64
2023-05-16T21:03:03.341Z,62.60
2023-05-16T21:05:30.228Z,62.87
2023-05-16T21:07:57.064Z,62.95
2023-05-16T21:10:23.920Z,62.91
2023-05-16T21:12:50.938Z,62.72
2023-05-16T21:15:17.723Z,62.78
2023-05-16T21:17:44.609Z,62.85
2023-05-16T21:20:11.686Z,63.76
2023-05-16T21:22:38.552Z,63.24
2023-05-16T21:25:05.839Z,63.55
2023-05-16T21:27:33.042Z,63.57
2023-05-16T21:30:02.727Z,64.22
2023-05-16T21:32:32.419Z,63.82
2023-05-16T21:35:04.228Z,63.89
2023-05-16T21:37:31.008Z,64.25
2023-05-16T21:39:57.791Z,63.50
2023-05-16T21:42:24.652Z,63.45
2023-05-16T21:44:51.640Z,63.26
2023-05-16T21:47:18.417Z,63.25
2023-05-16T21:49:45.494Z,63.34
2023-05-16T21:52:12.401Z,63.24
2023-05-16T21:54:39.182Z,63.22
2023-05-16T21:57:06.564Z,63.32
2023-05-16T21:59:33.536Z,63.69
2023-05-16T22:02:00.328Z,64.22
2023-05-16T22:04:27.441Z,64.48
2023-05-16T22:06:54.396Z,65.09
2023-05-16T22:09:21.160Z,65.64
2023-05-16T22:11:47.941Z,66.19
2023-05-16T22:14:14.740Z,66.64
2023-05-16T22:16:41.576Z,66.62
2023-05-16T22:19:09.108Z,66.99
2023-05-16T22:21:36.147Z,66.87
2023-05-16T22:24:03.329Z,67.06
2023-05-16T22:26:30.147Z,67.38
2023-05-16T22:28:56.975Z,67.74
2023-05-16T22:31:23.724Z,67.66
2023-05-16T22:33:50.557Z,67.71
2023-05-16T22:36:17.367Z,67.56
2023-05-16T22:38:44.191Z,67.51
2023-05-16T22:41:11.008Z,67.70
2023-05-16T22:43:38.442Z,68.09
2023-05-16T22:46:05.413Z,68.08
2023-05-16T22:48:32.262Z,67.66
2023-05-16T22:50:59.741Z,67.48
2023-05-16T22:53:26.708Z,67.49
2023-05-16T22:55:53.499Z,67.32
2023-05-16T22:58:20.378Z,67.88
2023-05-16T23:00:47.166Z,68.03
2023-05-16T23:03:14.086Z,68.16
2023-05-16T23:05:41.114Z,68.17
2023-05-16T23:08:07.927Z,68.15
2023-05-16T23:10:34.996Z,68.11
2023-05-16T23:13:01.921Z,68.32
2023-05-16T23:15:29.074Z,68.21
2023-05-16T23:17:57.709Z,68.64
2023-05-16T23:20:24.576Z,68.60
2023-05-16T23:22:51.402Z,68.36
2023-05-16T23:25:18.310Z,68.01
2023-05-16T23:27:45.110Z,67.96
2023-05-16T23:30:12.286Z,68.05
2023-05-16T23:32:39.118Z,68.13
2023-05-16T23:35:06.502Z,68.23
2023-05-16T23:37:33.359Z,68.24
2023-05-16T23:40:00.146Z,67.76
2023-05-16T23:42:26.956Z,68.24
2023-05-16T23:44:53.699Z,68.41
2023-05-16T23:47:20.538Z,68.92
2023-05-16T23:49:47.353Z,68.67
2023-05-16T23:52:14.173Z,68.36
2023-05-16T23:54:41.083Z,67.92
2023-05-16T23:57:07.964Z,68.10
2023-05-16T23:59:34.767Z,68.42
